createdAt,value
2018-03-30T00:00:10.649Z,1001.37
2018-03-30T00:01:19.738Z,1001.38
2018-03-30T00:02:28.782Z,1001.38
2018-03-30T00:03:37.795Z,1001.36
2018-03-30T00:04:47.045Z,1001.38
2018-03-30T00:05:56.023Z,1001.37
2018-03-30T00:07:04.989Z,1001.38
2018-03-30T00:08:14.262Z,1001.4
2018-03-30T00:09:23.430Z,1001.41
2018-03-30T00:10:32.170Z,1001.4
2018-03-30T00:11:41.174Z,1001.39
2018-03-30T00:12:50.112Z,1001.35
2018-03-30T00:13:59.422Z,1001.33
2018-03-30T00:15:08.998Z,1001.34
2018-03-30T00:16:18.230Z,1001.31
2018-03-30T00:17:27.486Z,1001.27
2018-03-30T00:18:36.289Z,1001.32
2018-03-30T00:19:45.552Z,1001.3
2018-03-30T00:20:54.583Z,1001.3
2018-03-30T00:22:03.576Z,1001.29
2018-03-30T00:23:13.180Z,1001.26
2018-03-30T00:24:22.730Z,1001.28
2018-03-30T00:25:31.552Z,1001.21
2018-03-30T00:26:40.829Z,1001.25
2018-03-30T00:27:50.407Z,1001.28
2018-03-30T00:28:59.775Z,1001.22
2018-03-30T00:30:08.830Z,1001.24
2018-03-30T00:31:18.490Z,1001.21
2018-03-30T00:32:27.527Z,1001.2
2018-03-30T00:33:36.604Z,1001.19
2018-03-30T00:34:45.380Z,1001.2
2018-03-30T00:35:54.383Z,1001.16
2018-03-30T00:37:03.500Z,1001.21
2018-03-30T00:38:13.042Z,1001.22
2018-03-30T00:39:22.380Z,1001.2
2018-03-30T00:40:31.961Z,1001.17
2018-03-30T00:41:41.001Z,1001.22
2018-03-30T00:42:50.036Z,1001.14
2018-03-30T00:43:59.876Z,1001.14
2018-03-30T00:45:08.988Z,1001.15
2018-03-30T00:46:18.070Z,1001.13
2018-03-30T00:47:27.108Z,1001.11
2018-03-30T00:48:36.683Z,1001.12
2018-03-30T00:49:45.710Z,1001.14
2018-03-30T00:50:55.596Z,1001.06
2018-03-30T00:52:04.704Z,1001.06
2018-03-30T00:53:14.261Z,1001.05
2018-03-30T00:54:23.297Z,1001.06
2018-03-30T00:55:32.819Z,1001.03
2018-03-30T00:56:42.427Z,1001.02
2018-03-30T00:57:51.769Z,1001.04
2018-03-30T00:59:01.150Z,1001.05
2018-03-30T01:00:10.180Z,1001.02
2018-03-30T01:01:19.792Z,1000.99
2018-03-30T01:02:28.852Z,1000.96
2018-03-30T01:03:37.658Z,1000.97
2018-03-30T01:04:46.401Z,1000.92
2018-03-30T01:05:55.955Z,1000.92
2018-03-30T01:07:05.579Z,1000.89
2018-03-30T01:08:14.343Z,1000.93
2018-03-30T01:09:23.363Z,1000.9
2018-03-30T01:10:33.078Z,1000.9
2018-03-30T01:11:42.050Z,1000.91
2018-03-30T01:12:51.288Z,1000.89
2018-03-30T01:14:00.289Z,1000.89
2018-03-30T01:15:09.353Z,1000.89
2018-03-30T01:16:18.209Z,1000.85
2018-03-30T01:17:27.234Z,1000.87
2018-03-30T01:18:36.782Z,1000.86
2018-03-30T01:19:45.797Z,1000.82
2018-03-30T01:20:55.092Z,1000.76
2018-03-30T01:22:04.505Z,1000.76
2018-03-30T01:23:13.792Z,1000.77
2018-03-30T01:24:22.637Z,1000.79
2018-03-30T01:25:31.957Z,1000.76
2018-03-30T01:26:41.129Z,1000.71
2018-03-30T01:27:50.175Z,1000.73
2018-03-30T01:28:59.164Z,1000.76
2018-03-30T01:30:08.418Z,1000.69
2018-03-30T01:31:17.456Z,1000.74
2018-03-30T01:32:26.252Z,1000.7
2018-03-30T01:33:35.089Z,1000.67
2018-03-30T01:34:44.158Z,1000.69
2018-03-30T01:35:52.969Z,1000.64
2018-03-30T01:37:02.054Z,1000.65
2018-03-30T01:38:11.826Z,1000.63
2018-03-30T01:39:21.444Z,1000.59
2018-03-30T01:40:30.487Z,1000.62
2018-03-30T01:41:39.551Z,1000.61
2018-03-30T01:42:48.829Z,1000.59
2018-03-30T01:43:58.150Z,1000.56
2018-03-30T01:45:07.466Z,1000.54
2018-03-30T01:46:16.470Z,1000.52
2018-03-30T01:47:26.038Z,1000.55
2018-03-30T01:48:35.633Z,1000.53
2018-03-30T01:49:45.023Z,1000.51
2018-03-30T01:50:53.746Z,1000.5
2018-03-30T01:52:02.740Z,1000.58
2018-03-30T01:53:11.767Z,1000.57
2018-03-30T01:54:20.890Z,1000.54
2018-03-30T01:55:30.470Z,1000.56
2018-03-30T01:56:39.673Z,1000.59
2018-03-30T01:57:49.031Z,1000.58
2018-03-30T01:58:58.340Z,1000.57
2018-03-30T02:00:08.003Z,1000.53
2018-03-30T02:01:17.411Z,1000.56
2018-03-30T02:02:26.711Z,1000.56
2018-03-30T02:03:35.841Z,1000.54
2018-03-30T02:04:44.668Z,1000.55
2018-03-30T02:05:53.425Z,1000.51
2018-03-30T02:07:03.005Z,1000.5
2018-03-30T02:08:12.032Z,1000.51
2018-03-30T02:09:20.856Z,1000.49
2018-03-30T02:10:30.205Z,1000.48
2018-03-30T02:11:39.246Z,1000.49
2018-03-30T02:12:48.596Z,1000.46
2018-03-30T02:13:57.858Z,1000.41
2018-03-30T02:15:06.889Z,1000.4
2018-03-30T02:16:16.287Z,1000.38
2018-03-30T02:17:25.071Z,1000.33
2018-03-30T02:18:34.203Z,1000.37
2018-03-30T02:19:43.220Z,1000.32
2018-03-30T02:20:52.100Z,1000.34
2018-03-30T02:22:01.230Z,1000.31
2018-03-30T02:23:09.960Z,1000.28
2018-03-30T02:24:19.341Z,1000.3
2018-03-30T02:25:29.148Z,1000.28
2018-03-30T02:26:38.183Z,1000.31
2018-03-30T02:27:46.980Z,1000.25
2018-03-30T02:28:56.322Z,1000.25
2018-03-30T02:30:05.368Z,1000.26
2018-03-30T02:31:14.211Z,1000.21
2018-03-30T02:32:23.474Z,1000.22
2018-03-30T02:33:32.806Z,1000.2
2018-03-30T02:34:41.788Z,1000.15
2018-03-30T02:35:50.643Z,1000.15
2018-03-30T02:37:00.790Z,1000.15
2018-03-30T02:38:10.350Z,1000.13
2018-03-30T02:39:19.174Z,1000.14
2018-03-30T02:40:28.432Z,1000.16
2018-03-30T02:41:38.268Z,1000.17
2018-03-30T02:42:47.353Z,1000.14
2018-03-30T02:43:56.858Z,1000.17
2018-03-30T02:45:06.144Z,1000.17
2018-03-30T02:46:14.931Z,1000.16
2018-03-30T02:47:23.992Z,1000.12
2018-03-30T02:48:33.067Z,1000.15
2018-03-30T02:49:42.411Z,1000.12
2018-03-30T02:50:51.758Z,1000.06
2018-03-30T02:52:01.192Z,1000.09
2018-03-30T02:53:10.723Z,1000.08
2018-03-30T02:54:19.823Z,1000.07
2018-03-30T02:55:28.908Z,1000.05
2018-03-30T02:56:38.166Z,1000.04
2018-03-30T02:57:47.532Z,1000.06
2018-03-30T02:58:56.525Z,1000.02
2018-03-30T03:00:06.086Z,1000.04
2018-03-30T03:01:15.663Z,1000
2018-03-30T03:02:25.232Z,1000.05
2018-03-30T03:03:34.633Z,1000.06
2018-03-30T03:04:43.975Z,1000.02
2018-03-30T03:05:52.986Z,1000.04
2018-03-30T03:07:02.260Z,1000.05
2018-03-30T03:08:11.831Z,1000.06
2018-03-30T03:09:20.896Z,1000.04
2018-03-30T03:10:30.023Z,1000.06
2018-03-30T03:11:39.296Z,1000.07
2018-03-30T03:12:48.620Z,1000.06
2018-03-30T03:13:58.457Z,1000.03
2018-03-30T03:15:07.827Z,1000.04
2018-03-30T03:16:16.883Z,1000.01
2018-03-30T03:17:25.969Z,1000.01
2018-03-30T03:18:34.978Z,1000.01
2018-03-30T03:19:44.004Z,999.99
2018-03-30T03:20:53.321Z,999.95
2018-03-30T03:22:02.671Z,999.95
2018-03-30T03:23:11.707Z,999.97
2018-03-30T03:24:21.026Z,999.96
2018-03-30T03:25:30.330Z,999.91
2018-03-30T03:26:39.550Z,999.95
2018-03-30T03:27:48.278Z,999.89
2018-03-30T03:28:57.340Z,999.92
2018-03-30T03:30:06.147Z,999.89
2018-03-30T03:31:14.907Z,999.94
2018-03-30T03:32:24.428Z,999.91
2018-03-30T03:33:33.464Z,999.88
2018-03-30T03:34:43.047Z,999.91
2018-03-30T03:35:52.742Z,999.88
2018-03-30T03:37:01.550Z,999.87
2018-03-30T03:38:11.404Z,999.82
2018-03-30T03:39:20.948Z,999.82
2018-03-30T03:40:30.270Z,999.79
2018-03-30T03:41:39.311Z,999.82
2018-03-30T03:42:48.355Z,999.81
2018-03-30T03:43:57.453Z,999.81
2018-03-30T03:45:06.812Z,999.82
2018-03-30T03:46:15.927Z,999.79
2018-03-30T03:47:24.944Z,999.81
2018-03-30T03:48:33.661Z,999.84
2018-03-30T03:49:42.980Z,999.82
2018-03-30T03:50:52.337Z,999.81
2018-03-30T03:52:01.362Z,999.8
2018-03-30T03:53:10.628Z,999.8
2018-03-30T03:54:19.362Z,999.76
2018-03-30T03:55:28.211Z,999.74
2018-03-30T03:56:37.247Z,999.75
2018-03-30T03:57:46.616Z,999.7
2018-03-30T03:58:56.118Z,999.73
2018-03-30T04:00:05.165Z,999.72
2018-03-30T04:01:14.797Z,999.7
2018-03-30T04:02:24.080Z,999.69
2018-03-30T04:03:33.863Z,999.69
2018-03-30T04:04:42.796Z,999.68
2018-03-30T04:05:51.793Z,999.61
2018-03-30T04:07:00.548Z,999.67
2018-03-30T04:08:10.099Z,999.68
2018-03-30T04:09:19.114Z,999.65
2018-03-30T04:10:28.175Z,999.7
2018-03-30T04:11:37.169Z,999.68
2018-03-30T04:12:46.478Z,999.65
2018-03-30T04:13:55.263Z,999.66
2018-03-30T04:15:04.569Z,999.62
2018-03-30T04:16:13.916Z,999.62
2018-03-30T04:17:22.991Z,999.64
2018-03-30T04:18:32.012Z,999.61
2018-03-30T04:19:41.285Z,999.62
2018-03-30T04:20:50.020Z,999.68
2018-03-30T04:21:58.860Z,999.65
2018-03-30T04:23:08.434Z,999.64
2018-03-30T04:24:17.249Z,999.66
2018-03-30T04:25:26.069Z,999.67
2018-03-30T04:26:35.107Z,999.66
2018-03-30T04:27:44.194Z,999.7
2018-03-30T04:28:53.760Z,999.65
2018-03-30T04:30:03.043Z,999.62
2018-03-30T04:31:12.035Z,999.59
2018-03-30T04:32:21.038Z,999.55
2018-03-30T04:33:29.905Z,999.53
2018-03-30T04:34:39.218Z,999.48
2018-03-30T04:35:48.564Z,999.48
2018-03-30T04:36:57.298Z,999.5
2018-03-30T04:38:06.340Z,999.51
2018-03-30T04:39:16.237Z,999.49
2018-03-30T04:40:25.077Z,999.49
2018-03-30T04:41:34.793Z,999.53
2018-03-30T04:42:44.333Z,999.54
2018-03-30T04:43:53.333Z,999.54
2018-03-30T04:45:03.011Z,999.55
2018-03-30T04:46:11.961Z,999.5
2018-03-30T04:47:21.520Z,999.5
2018-03-30T04:48:30.604Z,999.5
2018-03-30T04:49:40.129Z,999.49
2018-03-30T04:50:49.126Z,999.51
2018-03-30T04:51:58.177Z,999.5
2018-03-30T04:53:07.330Z,999.52
2018-03-30T04:54:17.082Z,999.55
2018-03-30T04:55:25.884Z,999.56
2018-03-30T04:56:34.661Z,999.53
2018-03-30T04:57:43.683Z,999.52
2018-03-30T04:58:52.748Z,999.55
2018-03-30T05:00:01.977Z,999.57
2018-03-30T05:01:11.347Z,999.57
2018-03-30T05:02:20.464Z,999.48
2018-03-30T05:03:29.485Z,999.57
2018-03-30T05:04:39.277Z,999.53
2018-03-30T05:05:48.308Z,999.57
2018-03-30T05:06:57.790Z,999.54
2018-03-30T05:08:07.053Z,999.58
2018-03-30T05:09:16.057Z,999.59
2018-03-30T05:10:25.291Z,999.54
2018-03-30T05:11:34.477Z,999.57
2018-03-30T05:12:43.474Z,999.61
2018-03-30T05:13:52.803Z,999.62
2018-03-30T05:15:02.137Z,999.57
2018-03-30T05:16:11.784Z,999.68
2018-03-30T05:17:20.798Z,999.63
2018-03-30T05:18:30.261Z,999.7
2018-03-30T05:19:39.624Z,999.66
2018-03-30T05:20:48.978Z,999.6
2018-03-30T05:21:58.713Z,999.63
2018-03-30T05:23:08.063Z,999.59
2018-03-30T05:24:17.650Z,999.61
2018-03-30T05:25:26.455Z,999.62
2018-03-30T05:26:35.452Z,999.62
2018-03-30T05:27:44.674Z,999.61
2018-03-30T05:28:53.976Z,999.62
2018-03-30T05:30:03.266Z,999.65
2018-03-30T05:31:12.393Z,999.64
2018-03-30T05:32:21.650Z,999.59
2018-03-30T05:33:30.967Z,999.57
2018-03-30T05:34:40.075Z,999.55
2018-03-30T05:35:49.673Z,999.54
2018-03-30T05:36:58.973Z,999.59
2018-03-30T05:38:08.522Z,999.54
2018-03-30T05:39:17.758Z,999.57
2018-03-30T05:40:26.794Z,999.56
2018-03-30T05:41:36.062Z,999.54
2018-03-30T05:42:45.086Z,999.59
2018-03-30T05:43:53.889Z,999.57
2018-03-30T05:45:03.093Z,999.54
2018-03-30T05:46:12.468Z,999.54
2018-03-30T05:47:21.822Z,999.49
2018-03-30T05:48:31.067Z,999.51
2018-03-30T05:49:40.101Z,999.5
2018-03-30T05:50:49.339Z,999.5
2018-03-30T05:51:58.893Z,999.49
2018-03-30T05:53:07.615Z,999.5
2018-03-30T05:54:16.570Z,999.45
2018-03-30T05:55:25.643Z,999.47
2018-03-30T05:56:34.398Z,999.44
2018-03-30T05:57:43.506Z,999.43
2018-03-30T05:58:52.832Z,999.44
2018-03-30T06:00:02.090Z,999.46
2018-03-30T06:01:11.175Z,999.46
2018-03-30T06:02:19.929Z,999.5
2018-03-30T06:03:29.652Z,999.51
2018-03-30T06:04:38.682Z,999.5
2018-03-30T06:05:47.445Z,999.54
2018-03-30T06:06:56.745Z,999.49
2018-03-30T06:08:05.535Z,999.47
2018-03-30T06:09:14.578Z,999.52
2018-03-30T06:10:23.591Z,999.54
2018-03-30T06:11:32.556Z,999.52
2018-03-30T06:12:41.568Z,999.54
2018-03-30T06:13:50.613Z,999.56
2018-03-30T06:14:59.328Z,999.56
2018-03-30T06:16:08.249Z,999.51
2018-03-30T06:17:17.221Z,999.54
2018-03-30T06:18:26.452Z,999.53
2018-03-30T06:19:35.426Z,999.55
2018-03-30T06:20:44.216Z,999.54
2018-03-30T06:21:52.925Z,999.5
2018-03-30T06:23:02.007Z,999.53
2018-03-30T06:24:11.034Z,999.51
2018-03-30T06:25:19.856Z,999.55
2018-03-30T06:26:28.923Z,999.53
2018-03-30T06:27:37.797Z,999.52
2018-03-30T06:28:47.143Z,999.5
2018-03-30T06:29:56.402Z,999.49
2018-03-30T06:31:05.891Z,999.47
2018-03-30T06:32:14.934Z,999.43
2018-03-30T06:33:24.237Z,999.44
2018-03-30T06:34:33.518Z,999.42
2018-03-30T06:35:42.836Z,999.43
2018-03-30T06:36:52.007Z,999.39
2018-03-30T06:38:00.965Z,999.37
2018-03-30T06:39:09.706Z,999.36
2018-03-30T06:40:19.307Z,999.35
2018-03-30T06:41:28.078Z,999.31
2018-03-30T06:42:37.422Z,999.35
2018-03-30T06:43:46.454Z,999.35
2018-03-30T06:44:55.720Z,999.32
2018-03-30T06:46:04.739Z,999.33
2018-03-30T06:47:13.483Z,999.32
2018-03-30T06:48:22.668Z,999.31
2018-03-30T06:49:31.445Z,999.29
2018-03-30T06:50:40.181Z,999.34
2018-03-30T06:51:49.013Z,999.31
2018-03-30T06:52:57.812Z,999.36
2018-03-30T06:54:07.328Z,999.35
2018-03-30T06:55:16.296Z,999.33
2018-03-30T06:56:26.167Z,999.35
2018-03-30T06:57:35.187Z,999.36
2018-03-30T06:58:45.083Z,999.33
2018-03-30T06:59:54.451Z,999.3
2018-03-30T07:01:04.150Z,999.25
2018-03-30T07:02:13.445Z,999.26
2018-03-30T07:03:23.265Z,999.25
2018-03-30T07:04:32.262Z,999.19
2018-03-30T07:05:42.446Z,999.16
2018-03-30T07:06:51.767Z,999.18
2018-03-30T07:08:00.802Z,999.17
2018-03-30T07:09:10.078Z,999.17
2018-03-30T07:10:19.353Z,999.12
2018-03-30T07:11:28.362Z,999.11
2018-03-30T07:12:37.904Z,999.09
2018-03-30T07:13:46.939Z,999.11
2018-03-30T07:14:55.936Z,999.12
2018-03-30T07:16:05.267Z,999.08
2018-03-30T07:17:14.648Z,999.09
2018-03-30T07:18:24.178Z,999.08
2018-03-30T07:19:33.318Z,999.04
2018-03-30T07:20:42.358Z,999.08
2018-03-30T07:21:51.653Z,999.07
2018-03-30T07:23:00.676Z,999.05
2018-03-30T07:24:10.022Z,999.05
2018-03-30T07:25:19.089Z,999.05
2018-03-30T07:26:28.108Z,999.04
2018-03-30T07:27:37.635Z,999.02
2018-03-30T07:28:47.194Z,999.06
2018-03-30T07:29:56.206Z,999.04
2018-03-30T07:31:05.757Z,998.97
2018-03-30T07:32:14.806Z,998.98
2018-03-30T07:33:23.532Z,998.94
2018-03-30T07:34:32.681Z,998.89
2018-03-30T07:35:42.238Z,998.97
2018-03-30T07:36:51.661Z,998.91
2018-03-30T07:38:00.476Z,998.9
2018-03-30T07:39:10.033Z,998.91
2018-03-30T07:40:19.020Z,998.89
2018-03-30T07:41:27.831Z,998.9
2018-03-30T07:42:36.628Z,998.88
2018-03-30T07:43:45.713Z,998.85
2018-03-30T07:44:54.483Z,998.86
2018-03-30T07:46:03.439Z,998.87
2018-03-30T07:47:12.825Z,998.82
2018-03-30T07:48:22.097Z,998.84
2018-03-30T07:49:31.343Z,998.82
2018-03-30T07:50:40.081Z,998.8
2018-03-30T07:51:49.883Z,998.8
2018-03-30T07:52:59.414Z,998.79
2018-03-30T07:54:08.396Z,998.85
2018-03-30T07:55:17.363Z,998.73
2018-03-30T07:56:26.353Z,998.74
2018-03-30T07:57:35.066Z,998.76
2018-03-30T07:58:44.769Z,998.71
2018-03-30T07:59:54.031Z,998.71
2018-03-30T08:01:03.300Z,998.69
2018-03-30T08:02:12.334Z,998.66
2018-03-30T08:03:21.833Z,998.67
2018-03-30T08:04:30.791Z,998.66
2018-03-30T08:05:39.945Z,998.66
2018-03-30T08:06:49.459Z,998.63
2018-03-30T08:07:58.893Z,998.62
2018-03-30T08:09:08.127Z,998.61
2018-03-30T08:10:17.251Z,998.55
2018-03-30T08:11:26.373Z,998.56
2018-03-30T08:12:35.505Z,998.52
2018-03-30T08:13:44.803Z,998.5
2018-03-30T08:14:53.881Z,998.51
2018-03-30T08:16:03.046Z,998.5
2018-03-30T08:17:12.100Z,998.46
2018-03-30T08:18:21.226Z,998.43
2018-03-30T08:19:30.040Z,998.45
2018-03-30T08:20:39.493Z,998.43
2018-03-30T08:21:50.328Z,998.45
2018-03-30T08:22:59.336Z,998.41
2018-03-30T08:24:08.643Z,998.45
2018-03-30T08:25:17.710Z,998.42
2018-03-30T08:26:26.693Z,998.42
2018-03-30T08:27:35.486Z,998.43
2018-03-30T08:28:44.531Z,998.41
2018-03-30T08:29:53.272Z,998.41
2018-03-30T08:31:02.026Z,998.35
2018-03-30T08:32:10.794Z,998.34
2018-03-30T08:33:19.541Z,998.37
2018-03-30T08:34:28.296Z,998.38
2018-03-30T08:35:37.382Z,998.34
2018-03-30T08:36:46.433Z,998.36
2018-03-30T08:37:55.808Z,998.37
2018-03-30T08:39:05.256Z,998.37
2018-03-30T08:40:14.224Z,998.32
2018-03-30T08:41:23.578Z,998.31
2018-03-30T08:42:33.366Z,998.25
2018-03-30T08:43:42.476Z,998.29
2018-03-30T08:44:51.618Z,998.25
2018-03-30T08:46:00.925Z,998.26
2018-03-30T08:47:09.957Z,998.23
2018-03-30T08:48:19.291Z,998.22
2018-03-30T08:49:28.032Z,998.26
2018-03-30T08:50:37.331Z,998.24
2018-03-30T08:51:46.815Z,998.21
2018-03-30T08:52:55.829Z,998.19
2018-03-30T08:54:05.328Z,998.19
2018-03-30T08:55:14.322Z,998.17
2018-03-30T08:56:23.698Z,998.14
2018-03-30T08:57:33.183Z,998.11
2018-03-30T08:58:41.949Z,998.07
2018-03-30T08:59:51.419Z,998.04
2018-03-30T09:01:00.665Z,998.07
2018-03-30T09:02:09.659Z,998.03
2018-03-30T09:03:18.412Z,998.02
2018-03-30T09:04:27.692Z,998.07
2018-03-30T09:05:36.430Z,998.01
2018-03-30T09:06:45.379Z,997.99
2018-03-30T09:07:54.617Z,998.02
2018-03-30T09:09:03.627Z,997.97
2018-03-30T09:10:12.334Z,998.01
2018-03-30T09:11:22.137Z,997.93
2018-03-30T09:12:31.239Z,997.92
2018-03-30T09:13:40.176Z,997.93
2018-03-30T09:14:49.407Z,997.93
2018-03-30T09:15:58.693Z,997.94
2018-03-30T09:17:07.715Z,997.91
2018-03-30T09:18:16.701Z,997.87
2018-03-30T09:19:25.675Z,997.89
2018-03-30T09:20:35.008Z,997.86
2018-03-30T09:21:44.072Z,997.83
2018-03-30T09:22:53.093Z,997.8
2018-03-30T09:24:02.067Z,997.81
2018-03-30T09:25:11.283Z,997.78
2018-03-30T09:26:20.270Z,997.79
2018-03-30T09:27:29.571Z,997.74
2018-03-30T09:28:38.673Z,997.72
2018-03-30T09:29:47.596Z,997.73
2018-03-30T09:30:56.586Z,997.69
2018-03-30T09:32:05.874Z,997.7
2018-03-30T09:33:14.578Z,997.75
2018-03-30T09:34:23.548Z,997.69
2018-03-30T09:35:32.793Z,997.64
2018-03-30T09:36:41.806Z,997.68
2018-03-30T09:37:50.824Z,997.62
2018-03-30T09:38:59.571Z,997.57
2018-03-30T09:40:08.665Z,997.57
2018-03-30T09:41:17.627Z,997.49
2018-03-30T09:42:26.853Z,997.53
2018-03-30T09:43:35.572Z,997.52
2018-03-30T09:44:45.058Z,997.58
2018-03-30T09:45:54.278Z,997.55
2018-03-30T09:47:04.061Z,997.54
2018-03-30T09:48:13.051Z,997.53
2018-03-30T09:49:22.329Z,997.46
2018-03-30T09:50:31.174Z,997.53
2018-03-30T09:51:40.196Z,997.49
2018-03-30T09:52:48.915Z,997.49
2018-03-30T09:53:58.131Z,997.46
2018-03-30T09:55:07.463Z,997.45
2018-03-30T09:56:16.709Z,997.48
2018-03-30T09:57:26.017Z,997.4
2018-03-30T09:58:34.698Z,997.4
2018-03-30T09:59:43.944Z,997.4
2018-03-30T10:00:53.434Z,997.43
2018-03-30T10:02:02.379Z,997.34
2018-03-30T10:03:12.105Z,997.36
2018-03-30T10:04:20.884Z,997.39
2018-03-30T10:05:29.938Z,997.29
2018-03-30T10:06:38.896Z,997.29
2018-03-30T10:07:47.948Z,997.28
2018-03-30T10:08:57.182Z,997.31
2018-03-30T10:10:06.168Z,997.26
2018-03-30T10:11:14.976Z,997.27
2018-03-30T10:12:24.229Z,997.28
2018-03-30T10:13:32.979Z,997.21
2018-03-30T10:14:42.555Z,997.2
2018-03-30T10:15:52.138Z,997.2
2018-03-30T10:17:01.400Z,997.08
2018-03-30T10:18:10.210Z,997.06
2018-03-30T10:19:19.389Z,997.05
2018-03-30T10:20:28.597Z,997.03
2018-03-30T10:21:37.821Z,996.99
2018-03-30T10:22:46.547Z,996.95
2018-03-30T10:23:55.716Z,996.88
2018-03-30T10:25:04.722Z,996.88
2018-03-30T10:26:13.735Z,996.92
2018-03-30T10:27:22.826Z,996.84
2018-03-30T10:28:31.851Z,996.83
2018-03-30T10:29:41.456Z,996.83
2018-03-30T10:30:50.810Z,996.75
2018-03-30T10:31:59.805Z,996.8
2018-03-30T10:33:09.354Z,996.69
2018-03-30T10:34:18.335Z,996.73
2018-03-30T10:35:27.062Z,996.74
2018-03-30T10:36:36.361Z,996.66
2018-03-30T10:37:45.422Z,996.6
2018-03-30T10:38:54.181Z,996.52
2018-03-30T10:40:03.143Z,996.56
2018-03-30T10:41:12.355Z,996.51
2018-03-30T10:42:21.131Z,996.49
2018-03-30T10:43:29.963Z,996.47
2018-03-30T10:44:39.017Z,996.44
2018-03-30T10:45:48.340Z,996.35
2018-03-30T10:46:57.202Z,996.24
2018-03-30T10:48:05.945Z,996.26
2018-03-30T10:49:14.717Z,996.26
2018-03-30T10:50:23.697Z,996.2
2018-03-30T10:51:33.300Z,996.27
2018-03-30T10:52:42.549Z,996.18
2018-03-30T10:53:52.060Z,996.07
2018-03-30T10:55:01.107Z,996.04
2018-03-30T10:56:09.882Z,996
2018-03-30T10:57:18.910Z,995.93
2018-03-30T10:58:28.774Z,995.98
2018-03-30T10:59:37.764Z,995.85
2018-03-30T11:00:46.808Z,995.79
2018-03-30T11:01:56.135Z,995.71
2018-03-30T11:03:05.138Z,995.7
2018-03-30T11:04:14.231Z,995.7
2018-03-30T11:05:23.846Z,995.62
2018-03-30T11:06:33.213Z,995.58
2018-03-30T11:07:42.080Z,995.55
2018-03-30T11:08:50.890Z,995.51
2018-03-30T11:09:59.703Z,995.44
2018-03-30T11:11:08.972Z,995.45
2018-03-30T11:12:17.967Z,995.38
2018-03-30T11:13:27.521Z,995.32
2018-03-30T11:14:36.514Z,995.35
2018-03-30T11:15:45.688Z,995.29
2018-03-30T11:16:54.445Z,995.24
2018-03-30T11:18:03.513Z,995.21
2018-03-30T11:19:12.897Z,995.14
2018-03-30T11:20:22.199Z,995.05
2018-03-30T11:21:31.742Z,995.01
2018-03-30T11:22:40.826Z,995.02
2018-03-30T11:23:49.927Z,994.98
2018-03-30T11:24:58.948Z,995.03
2018-03-30T11:26:07.751Z,995.05
2018-03-30T11:27:16.790Z,995.07
2018-03-30T11:28:25.769Z,995.13
2018-03-30T11:29:35.030Z,995.16
2018-03-30T11:30:44.562Z,995.16
2018-03-30T11:31:54.086Z,995.16
2018-03-30T11:33:03.556Z,995.23
2018-03-30T11:34:12.839Z,995.17
2018-03-30T11:35:22.372Z,995.18
2018-03-30T11:36:31.620Z,995.22
2018-03-30T11:37:40.612Z,995.19
2018-03-30T11:38:49.367Z,995.24
2018-03-30T11:39:58.353Z,995.33
2018-03-30T11:41:07.546Z,995.31
2018-03-30T11:42:16.587Z,995.34
2018-03-30T11:43:25.863Z,995.34
2018-03-30T11:44:34.572Z,995.31
2018-03-30T11:45:43.566Z,995.29
2018-03-30T11:46:52.505Z,995.31
2018-03-30T11:48:01.201Z,995.28
2018-03-30T11:49:10.185Z,995.22
2018-03-30T11:50:19.089Z,995.08
2018-03-30T11:51:28.132Z,995.13
2018-03-30T11:52:37.461Z,995.14
2018-03-30T11:53:46.404Z,995.15
2018-03-30T11:54:55.428Z,995.14
2018-03-30T11:56:04.952Z,995.1
2018-03-30T11:57:13.978Z,995.12
2018-03-30T11:58:23.479Z,995.15
2018-03-30T11:59:32.234Z,995.17
2018-03-30T12:00:41.609Z,995.2
2018-03-30T12:01:50.658Z,995.2
2018-03-30T12:02:59.734Z,995.19
2018-03-30T12:04:08.773Z,995.19
2018-03-30T12:05:17.519Z,995.13
2018-03-30T12:06:26.552Z,995.16
2018-03-30T12:07:36.173Z,995.11
2018-03-30T12:08:45.255Z,995.05
2018-03-30T12:09:54.528Z,994.98
2018-03-30T12:11:03.833Z,995.04
2018-03-30T12:12:12.873Z,994.95
2018-03-30T12:13:21.874Z,994.99
2018-03-30T12:14:31.206Z,994.98
2018-03-30T12:15:40.438Z,994.97
2018-03-30T12:16:49.430Z,994.93
2018-03-30T12:17:59.272Z,994.93
2018-03-30T12:19:08.781Z,995.01
2018-03-30T12:20:18.001Z,995.03
2018-03-30T12:21:27.019Z,995.08
2018-03-30T12:22:36.306Z,995.04
2018-03-30T12:23:45.773Z,995.05
2018-03-30T12:24:54.810Z,994.96
2018-03-30T12:26:04.110Z,995
2018-03-30T12:27:13.576Z,994.94
2018-03-30T12:28:22.590Z,994.96
2018-03-30T12:29:31.639Z,994.99
2018-03-30T12:30:40.658Z,994.98
2018-03-30T12:31:50.167Z,995.02
2018-03-30T12:32:59.206Z,995.07
2018-03-30T12:34:08.180Z,994.95
2018-03-30T12:35:17.787Z,994.96
2018-03-30T12:36:27.076Z,994.99
2018-03-30T12:37:36.642Z,995.04
2018-03-30T12:38:46.175Z,995.05
2018-03-30T12:39:54.899Z,995.1
2018-03-30T12:41:04.440Z,995.03
2018-03-30T12:42:13.324Z,995.02
2018-03-30T12:43:22.026Z,995.01
2018-03-30T12:44:31.300Z,994.96
2018-03-30T12:45:40.283Z,994.95
2018-03-30T12:46:49.362Z,994.96
2018-03-30T12:47:58.748Z,994.96
2018-03-30T12:49:08.080Z,994.95
2018-03-30T12:50:16.997Z,994.92
2018-03-30T12:51:26.295Z,994.89
2018-03-30T12:52:35.586Z,994.89
2018-03-30T12:53:44.614Z,994.86
2018-03-30T12:54:53.838Z,994.81
2018-03-30T12:56:02.574Z,994.82
2018-03-30T12:57:11.635Z,994.77
2018-03-30T12:58:22.292Z,994.85
2018-03-30T12:59:31.537Z,994.79
2018-03-30T13:00:40.587Z,994.77
2018-03-30T13:01:49.652Z,994.68
2018-03-30T13:02:58.700Z,994.69
2018-03-30T13:04:07.701Z,994.65
2018-03-30T13:05:16.924Z,994.65
2018-03-30T13:06:25.919Z,994.6
2018-03-30T13:07:34.897Z,994.61
2018-03-30T13:08:44.190Z,994.54
2018-03-30T13:09:53.491Z,994.55
2018-03-30T13:11:02.736Z,994.56
2018-03-30T13:12:11.952Z,994.59
2018-03-30T13:13:20.796Z,994.6
2018-03-30T13:14:30.009Z,994.52
2018-03-30T13:15:38.987Z,994.51
2018-03-30T13:16:47.791Z,994.45
2018-03-30T13:17:56.784Z,994.43
2018-03-30T13:19:06.088Z,994.41
2018-03-30T13:20:14.778Z,994.36
2018-03-30T13:21:23.999Z,994.39
2018-03-30T13:22:32.959Z,994.38
2018-03-30T13:23:42.226Z,994.39
2018-03-30T13:24:51.552Z,994.32
2018-03-30T13:26:00.409Z,994.29
2018-03-30T13:27:09.179Z,994.29
2018-03-30T13:28:17.960Z,994.26
2018-03-30T13:29:27.207Z,994.26
2018-03-30T13:30:35.990Z,994.25
2018-03-30T13:31:44.982Z,994.25
2018-03-30T13:32:54.267Z,994.21
2018-03-30T13:34:03.428Z,994.21
2018-03-30T13:35:12.191Z,994.25
2018-03-30T13:36:20.973Z,994.22
2018-03-30T13:37:29.990Z,994.14
2018-03-30T13:38:38.674Z,994.14
2018-03-30T13:39:47.980Z,994.19
2018-03-30T13:40:57.286Z,994.13
2018-03-30T13:42:06.192Z,994.05
2018-03-30T13:43:15.255Z,993.99
2018-03-30T13:44:24.267Z,994
2018-03-30T13:45:33.504Z,993.93
2018-03-30T13:46:42.281Z,993.95
2018-03-30T13:47:51.605Z,993.9
2018-03-30T13:49:00.471Z,993.84
2018-03-30T13:50:09.393Z,993.82
2018-03-30T13:51:18.108Z,993.86
2018-03-30T13:52:27.147Z,993.89
2018-03-30T13:53:36.211Z,993.88
2018-03-30T13:54:45.836Z,993.83
2018-03-30T13:55:55.322Z,993.87
2018-03-30T13:57:04.337Z,993.88
2018-03-30T13:58:13.509Z,993.88
2018-03-30T13:59:23.358Z,993.85
2018-03-30T14:00:32.098Z,993.87
2018-03-30T14:01:41.084Z,993.93
2018-03-30T14:02:50.936Z,993.92
2018-03-30T14:04:00.283Z,993.92
2018-03-30T14:05:10.251Z,993.87
2018-03-30T14:06:19.180Z,993.83
2018-03-30T14:07:28.108Z,993.85
2018-03-30T14:08:37.251Z,993.9
2018-03-30T14:09:46.558Z,993.87
2018-03-30T14:10:55.748Z,993.82
2018-03-30T14:12:04.766Z,993.81
2018-03-30T14:13:13.579Z,993.72
2018-03-30T14:14:22.712Z,993.68
2018-03-30T14:15:32.305Z,993.64
2018-03-30T14:16:41.138Z,993.55
2018-03-30T14:17:50.241Z,993.63
2018-03-30T14:18:59.056Z,993.63